Terminal Aerodrome Forecast
Issued by NWS Caribou, ME

Home | Current Version | Previous Version | Text Only | Print | Product List | Glossary On
Versions: 1 2 3 4 5 6 7 8 9 10 11 12 13 14 15 16 17 18 19 20 21 22 23 24 25 26 27 28 29 30 31 32 33 34 35 36 37 38 39 40 41 42 43
153
FTUS41 KCAR 282331
TAFCAR
TAF
KCAR 282331Z 2900/2924 20004KT 6SM BR BKN008
     FM290200 22004KT 2SM BR SCT008 BKN015
     FM290400 24004KT 1SM BR FEW003
     FM291000 24007KT P6SM BKN003
     FM291200 24010G20KT P6SM BKN040
     FM292000 28015G25KT P6SM BKN040=

USA.gov is the U.S. government's official web portal to all federal, state and local government web resources and services.